Terminal Aerodrome Forecast
Issued by NWS Portland, ME

Home | Current Version | Previous Version | Text Only | Print | Product List | Glossary On
Versions: 1 2 3 4 5 6 7 8 9 10 11 12 13 14 15 16 17 18
835
FTUS41 KGYX 251122
TAFPWM
TAF
KPWM 251122Z 2512/2612 16004KT P6SM BKN050 OVC100
     FM251300 14005KT P6SM -RA OVC050
      TEMPO 2514/2517 5SM -RA BKN025 OVC050
     FM251700 13007KT 5SM -RA BKN015 OVC025
     FM251900 13009KT 2SM -RA BKN007 OVC015
     FM260000 12010KT 1SM -RA BR OVC003=

USA.gov is the U.S. government's official web portal to all federal, state and local government web resources and services.